Time;durP1;ratioP1;P1;durP2;ratioP2;P2;SDS_P1;SDS_P2;PMS_P1;PMS_P2;Temp;Humidity;BMP_temperature;BMP_pressure;BME280_temperature;BME280_humidity;BME280_pressure;Samples;Min_cycle;Max_cycle;Signal;HPM_P1;HPM_P2
2020/12/05 00:01:08;;;;;;;85.10;36.53;;;;;;;0.80;76.83;100300.50;1724221;82;21367;-35
2020/12/05 00:03:37;;;;;;;72.03;34.05;;;;;;;1.20;76.95;100373.80;1734578;82;21186;-35
2020/12/05 00:06:05;;;;;;;87.30;39.53;;;;;;;1.19;77.07;100370.05;1726133;82;21393;-35
2020/12/05 00:08:34;;;;;;;79.60;36.75;;;;;;;1.27;77.04;100376.95;1716278;82;21162;-35
2020/12/05 00:11:03;;;;;;;90.30;38.90;;;;;;;1.33;76.91;100380.95;1722866;82;21108;-35
2020/12/05 00:13:31;;;;;;;87.67;38.20;;;;;;;1.31;76.94;100392.70;1743221;82;23520;-35
2020/12/05 00:16:00;;;;;;;80.35;36.83;;;;;;;1.30;76.98;100397.80;1741345;81;21063;-34
2020/12/05 00:18:28;;;;;;;78.33;36.17;;;;;;;1.25;77.00;100397.81;1720405;82;21153;-35
2020/12/05 00:20:58;;;;;;;90.12;39.65;;;;;;;1.31;76.74;100411.40;1711752;82;21056;-35
2020/12/05 00:23:27;;;;;;;92.78;39.45;;;;;;;1.23;76.97;100409.30;1736998;81;21154;-35
2020/12/05 00:25:56;;;;;;;81.17;37.30;;;;;;;1.17;77.19;100403.70;1778256;79;21263;-35
2020/12/05 00:28:24;;;;;;;73.87;33.38;;;;;;;1.17;77.22;100403.70;1792359;79;21174;-35
2020/12/05 00:30:53;;;;;;;78.95;36.08;;;;;;;1.25;77.02;100401.83;1781680;79;21138;-35
2020/12/05 00:33:21;;;;;;;84.32;38.58;;;;;;;1.22;77.14;100402.34;1771363;79;21161;-35
2020/12/05 00:35:49;;;;;;;76.47;35.95;;;;;;;1.18;77.26;100394.62;1775125;79;21167;-35
2020/12/05 00:38:18;;;;;;;84.52;37.73;;;;;;;1.13;77.38;100384.48;1791405;79;21205;-35
2020/12/05 00:40:48;;;;;;;;;;;;;;;1.15;77.46;100393.04;1789643;79;21170;-35
2020/12/05 00:43:16;;;;;;;79.35;35.68;;;;;;;1.16;77.45;100398.09;1775243;79;20190;-35
2020/12/05 00:45:45;;;;;;;78.45;35.43;;;;;;;1.06;77.82;100396.81;1800368;79;21139;-35
2020/12/05 00:48:13;;;;;;;76.17;34.23;;;;;;;1.12;77.70;100393.03;1775745;79;21106;-35
2020/12/05 00:50:42;;;;;;;68.30;32.17;;;;;;;1.22;77.45;100403.69;1771442;81;21191;-38
2020/12/05 00:53:11;;;;;;;71.07;33.20;;;;;;;1.25;77.23;100404.50;1771410;79;21123;-36
2020/12/05 00:55:39;;;;;;;77.08;33.48;;;;;;;1.25;77.24;100406.36;1749707;81;20988;-35
2020/12/05 00:58:08;;;;;;;78.12;34.75;;;;;;;1.26;77.14;100407.41;1772287;79;21980;-37
2020/12/05 01:00:36;;;;;;;65.47;31.30;;;;;;;1.29;77.08;100405.55;1783936;79;21170;-37
2020/12/05 01:03:05;;;;;;;70.92;33.85;;;;;;;1.33;76.84;100389.77;1776585;79;21383;-36
2020/12/05 01:05:35;;;;;;;67.50;30.27;;;;;;;1.30;76.68;100400.47;1761204;79;21412;-36
2020/12/05 01:08:05;;;;;;;78.97;33.10;;;;;;;1.26;76.82;100398.06;1788932;79;21024;-35
2020/12/05 01:10:35;;;;;;;59.83;29.02;;;;;;;1.21;77.01;100395.41;1787903;79;21143;-35
2020/12/05 01:13:04;;;;;;;58.35;27.52;;;;;;;1.17;76.82;100399.69;1794719;79;21139;-35
2020/12/05 01:15:32;;;;;;;64.95;31.33;;;;;;;1.18;76.87;100401.30;1802349;79;21261;-35
2020/12/05 01:18:01;;;;;;;64.47;30.65;;;;;;;1.19;76.97;100396.76;1783602;79;21176;-35
2020/12/05 01:20:29;;;;;;;58.50;28.77;;;;;;;1.20;77.12;100401.04;1743394;81;21178;-35
2020/12/05 01:22:58;;;;;;;57.33;29.42;;;;;;;1.18;76.94;100397.30;1744050;81;21148;-35
2020/12/05 01:25:27;;;;;;;56.68;27.60;;;;;;;1.20;76.91;100396.50;1748423;81;21147;-36
2020/12/05 01:27:55;;;;;;;55.52;25.40;;;;;;;1.24;76.82;100402.89;1747764;81;21386;-35
2020/12/05 01:30:23;;;;;;;60.73;29.20;;;;;;;1.18;76.94;100405.30;1753281;81;21138;-35
2020/12/05 01:32:55;;;;;;;50.35;25.40;;;;;;;1.16;77.10;100403.43;1742418;81;21161;-35
2020/12/05 01:35:22;;;;;;;;;;;;;;;1.19;76.86;100406.91;1747242;81;21440;-35
2020/12/05 01:37:50;;;;;;;51.00;23.95;;;;;;;1.24;76.78;100398.08;1755842;81;20296;-35
2020/12/05 01:40:19;;;;;;;50.17;24.85;;;;;;;1.14;77.00;100394.91;1768812;81;21260;-35
2020/12/05 01:42:53;;;;;;;58.87;27.25;;;;;;;1.10;77.05;100389.85;1753452;81;21449;-35
2020/12/05 01:45:21;;;;;;;51.75;26.17;;;;;;;1.04;77.21;100402.14;1766669;81;21134;-35
2020/12/05 01:47:49;;;;;;;52.27;24.25;;;;;;;1.00;77.46;100401.09;1730123;81;21129;-35
2020/12/05 01:50:18;;;;;;;56.10;26.25;;;;;;;1.10;77.29;100401.06;1769045;81;21169;-38
2020/12/05 01:52:46;;;;;;;51.40;25.75;;;;;;;1.07;77.37;100396.24;1749170;81;23583;-37
2020/12/05 01:55:15;;;;;;;50.12;24.20;;;;;;;0.68;77.29;100337.34;1739925;81;21161;-36
2020/12/05 01:57:43;;;;;;;50.40;26.20;;;;;;;1.05;77.31;100393.06;1740881;81;21102;-36
2020/12/05 02:00:11;;;;;;;50.12;22.70;;;;;;;1.03;77.40;100401.34;1740308;81;21169;-38
2020/12/05 02:02:39;;;;;;;57.90;26.23;;;;;;;1.02;77.35;100398.39;1748645;81;21106;-35
2020/12/05 02:05:18;;;;;;;54.93;24.75;;;;;;;0.98;77.49;100398.67;1755597;81;23452;-37
2020/12/05 02:07:52;;;;;;;55.80;26.27;;;;;;;0.99;77.51;100397.61;1744770;81;21161;-36
2020/12/05 02:10:27;;;;;;;52.35;25.12;;;;;;;1.05;77.55;100395.20;1751478;81;21165;-35
2020/12/05 02:13:09;;;;;;;54.35;25.48;;;;;;;1.03;77.54;100391.99;1756542;81;20964;-36
2020/12/05 02:15:38;;;;;;;48.15;24.20;;;;;;;1.00;77.58;100398.42;1739656;82;21173;-35
2020/12/05 02:18:07;;;;;;;52.27;24.47;;;;;;;1.07;77.48;100394.91;1751481;81;21370;-35
2020/12/05 02:20:37;;;;;;;46.35;24.82;;;;;;;1.12;77.38;100399.70;1755281;80;21007;-35
2020/12/05 02:23:16;;;;;;;47.90;25.82;;;;;;;1.14;77.30;100400.25;1765287;79;21107;-35
2020/12/05 02:28:27;;;;;;;48.42;25.45;;;;;;;1.16;77.37;100407.44;1815162;77;22913;-35
2020/12/05 02:30:56;;;;;;;53.45;27.15;;;;;;;1.18;77.22;100403.97;1801830;78;21605;-36
2020/12/05 02:33:24;;;;;;;52.27;26.02;;;;;;;1.20;77.06;100403.17;1769757;80;21395;-38
2020/12/05 02:35:53;;;;;;;56.73;26.07;;;;;;;1.17;77.09;100406.37;1772523;80;21464;-35
2020/12/05 02:38:29;;;;;;;47.62;24.50;;;;;;;1.13;77.29;100413.33;1770840;80;21076;-38
2020/12/05 02:40:58;;;;;;;45.73;23.22;;;;;;;1.09;77.44;100413.61;1743739;80;20982;-40
2020/12/05 02:43:27;;;;;;;53.25;25.50;;;;;;;1.15;77.21;100411.20;1739313;80;21017;-36
2020/12/05 02:45:55;;;;;;;55.58;25.08;;;;;;;1.13;77.34;100417.87;1750332;80;21555;-35
2020/12/05 02:48:24;;;;;;;46.90;24.15;;;;;;;1.08;77.48;100404.53;1749214;82;21910;-34
2020/12/05 02:50:52;;;;;;;43.65;23.52;;;;;;;1.05;77.58;100411.76;1753306;80;21052;-35
2020/12/05 02:53:20;;;;;;;58.02;25.82;;;;;;;1.13;77.41;100409.86;1743353;80;21166;-35
2020/12/05 02:55:49;;;;;;;56.28;25.25;;;;;;;1.11;77.49;100408.81;1746492;81;21198;-35
2020/12/05 02:58:17;;;;;;;42.48;21.90;;;;;;;1.07;77.57;100406.39;1741354;81;21219;-35
2020/12/05 03:00:45;;;;;;;54.10;24.02;;;;;;;1.05;77.65;100407.22;1747305;81;20992;-36
2020/12/05 03:03:15;;;;;;;40.35;19.57;;;;;;;1.08;77.58;100405.33;1740870;81;21161;-36
2020/12/05 03:05:43;;;;;;;52.40;25.25;;;;;;;1.02;77.68;100407.73;1741718;81;21071;-36
2020/12/05 03:08:11;;;;;;;41.92;23.15;;;;;;;0.94;77.97;100412.30;1726107;81;21151;-35
2020/12/05 03:10:40;;;;;;;47.75;23.75;;;;;;;0.92;78.14;100405.65;1741164;80;22144;-35
2020/12/05 03:13:08;;;;;;;46.50;23.70;;;;;;;0.96;78.05;100406.17;1749252;80;21593;-34
2020/12/05 03:15:36;;;;;;;50.17;24.25;;;;;;;0.94;78.20;100405.63;1757437;80;21178;-35
2020/12/05 03:18:05;;;;;;;48.15;24.80;;;;;;;0.88;78.33;100407.50;1726750;81;21131;-35
2020/12/05 03:20:33;;;;;;;54.85;25.23;;;;;;;0.88;78.44;100404.84;1735302;81;21178;-35
2020/12/05 03:23:02;;;;;;;56.85;26.68;;;;;;;0.88;78.39;100407.50;1741619;81;21399;-35
2020/12/05 03:25:30;;;;;;;48.42;23.65;;;;;;;0.85;78.55;100407.25;1737765;82;21166;-35
2020/12/05 03:27:59;;;;;;;52.73;25.45;;;;;;;0.85;78.57;100402.72;1761178;80;21155;-35
2020/12/05 03:30:28;;;;;;;52.35;25.20;;;;;;;0.87;78.50;100399.79;1772395;80;21126;-35
2020/12/05 03:32:56;;;;;;;54.90;25.75;;;;;;;0.88;78.53;100396.83;1787372;80;21436;-36
2020/12/05 03:35:26;;;;;;;48.33;24.27;;;;;;;0.84;78.57;100394.97;1777314;80;21220;-35
2020/12/05 03:37:55;;;;;;;54.08;25.15;;;;;;;0.84;78.65;100393.64;1756052;80;21134;-36
2020/12/05 03:40:24;;;;;;;56.33;25.15;;;;;;;0.89;78.50;100388.28;1751065;81;21170;-35
2020/12/05 03:42:52;;;;;;;45.83;24.55;;;;;;;0.80;78.67;100389.91;1773508;80;21475;-34
2020/12/05 03:45:21;;;;;;;48.58;24.25;;;;;;;0.72;78.92;100386.47;1756946;80;21213;-35
2020/12/05 03:47:49;;;;;;;50.78;25.02;;;;;;;0.71;78.96;100381.66;1739931;80;21147;-35
2020/12/05 03:50:17;;;;;;;48.15;24.50;;;;;;;0.73;79.00;100378.17;1731101;80;21182;-35
2020/12/05 03:52:46;;;;;;;48.65;23.22;;;;;;;0.64;79.15;100382.98;1751967;80;21151;-34
2020/12/05 03:55:15;;;;;;;52.08;24.63;;;;;;;0.58;79.38;100382.19;1756897;80;21088;-35
2020/12/05 03:57:44;;;;;;;63.83;25.37;;;;;;;0.58;79.32;100380.08;1754522;80;21392;-36
2020/12/05 04:00:12;;;;;;;48.20;24.43;;;;;;;0.54;79.37;100388.33;1772555;80;21299;-36
2020/12/05 04:02:40;;;;;;;47.60;24.18;;;;;;;0.54;79.55;100386.99;1756049;81;21720;-36
2020/12/05 04:05:09;;;;;;;53.00;24.80;;;;;;;0.53;79.54;100380.88;1766724;80;21146;-35
2020/12/05 04:07:37;;;;;;;48.08;22.60;;;;;;;0.54;79.49;100377.66;1743684;81;21012;-35
2020/12/05 04:10:05;;;;;;;48.52;24.37;;;;;;;0.52;79.61;100385.14;1767272;80;21123;-35
2020/12/05 04:12:33;;;;;;;47.15;24.23;;;;;;;0.56;79.53;100388.34;1767657;80;21421;-35
2020/12/05 04:15:03;;;;;;;53.78;25.72;;;;;;;0.63;79.26;100382.17;1757716;80;21165;-36
2020/12/05 04:17:31;;;;;;;46.08;23.42;;;;;;;0.63;79.20;100384.08;1755824;80;21193;-36
2020/12/05 04:20:00;;;;;;;50.92;25.00;;;;;;;0.63;79.14;100380.08;1738505;81;21190;-35
2020/12/05 04:22:28;;;;;;;59.93;26.37;;;;;;;0.66;79.07;100379.52;1744769;80;21138;-35
2020/12/05 04:24:57;;;;;;;56.20;26.55;;;;;;;0.61;79.19;100378.20;1777915;80;21274;-36
2020/12/05 04:27:25;;;;;;;59.98;27.17;;;;;;;0.54;79.45;100364.31;1777263;80;21190;-36
2020/12/05 04:29:54;;;;;;;64.72;28.87;;;;;;;0.48;79.82;100376.88;1746260;80;21722;-36
2020/12/05 04:32:22;;;;;;;59.33;28.07;;;;;;;0.51;79.82;100379.53;1746859;80;21186;-36
2020/12/05 04:34:51;;;;;;;60.25;28.02;;;;;;;0.45;80.05;100390.73;1751409;81;21139;-36
2020/12/05 04:37:19;;;;;;;56.58;26.87;;;;;;;0.49;79.98;100393.66;1739762;81;21278;-35
2020/12/05 04:41:15;;;;;;;52.62;26.23;;;;;;;0.57;79.81;100395.28;1814256;77;22699;-36
2020/12/05 04:43:43;;;;;;;57.75;27.90;;;;;;;0.53;79.88;100396.09;1800578;78;20984;-37
2020/12/05 04:46:12;;;;;;;54.83;26.75;;;;;;;0.61;79.58;100396.87;1799584;79;21361;-36
2020/12/05 04:48:41;;;;;;;61.23;27.73;;;;;;;0.63;79.46;100405.42;1790943;78;21035;-36
2020/12/05 04:51:17;;;;;;;56.73;27.97;;;;;;;0.58;79.48;100404.09;1795005;79;20999;-36
2020/12/05 04:53:47;;;;;;;57.43;26.93;;;;;;;0.58;79.41;100401.42;1794440;78;21601;-35
2020/12/05 04:56:16;;;;;;;53.85;27.27;;;;;;;0.60;79.41;100410.75;1813142;78;20989;-35
2020/12/05 04:58:47;;;;;;;49.85;26.25;;;;;;;0.58;79.45;100403.53;1799658;78;21203;-37
2020/12/05 05:01:19;;;;;;;55.30;28.32;;;;;;;0.61;79.51;100410.22;1790937;78;21600;-35
2020/12/05 05:03:47;;;;;;;55.10;27.50;;;;;;;0.68;79.28;100414.20;1745804;82;21219;-35
2020/12/05 05:06:19;;;;;;;57.20;27.00;;;;;;;0.72;79.25;100417.16;1749117;82;20994;-35
2020/12/05 05:08:47;;;;;;;53.23;27.25;;;;;;;0.72;79.06;100411.81;1744200;82;21061;-35
2020/12/05 05:11:17;;;;;;;58.17;28.30;;;;;;;0.76;78.83;100406.20;1770018;80;21387;-36
2020/12/05 05:13:50;;;;;;;57.85;28.45;;;;;;;0.79;78.72;100421.67;1755397;80;21608;-36
2020/12/05 05:16:19;;;;;;;59.53;27.77;;;;;;;0.75;78.67;100415.27;1771411;80;21147;-35
2020/12/05 05:18:48;;;;;;;53.68;27.13;;;;;;;0.76;78.60;100416.34;1753349;80;21157;-35
2020/12/05 05:21:39;;;;;;;53.50;27.77;;;;;;;0.79;78.51;100429.67;1745058;81;21036;-36
2020/12/05 05:24:16;;;;;;;56.37;26.23;;;;;;;0.80;78.49;100428.61;1771568;80;21270;-35
2020/12/05 05:26:47;;;;;;;57.67;27.50;;;;;;;0.73;78.52;100422.20;1753099;80;21167;-36
2020/12/05 05:29:32;;;;;;;52.45;28.52;;;;;;;0.70;78.50;100427.28;1749314;80;21103;-35
2020/12/05 05:32:08;;;;;;;61.80;29.77;;;;;;;0.67;78.46;100415.82;1762589;80;21110;-36
2020/12/05 05:34:32;;;;;;;54.98;27.55;;;;;;;0.56;78.75;100422.22;1751844;80;21175;-35
2020/12/05 05:37:04;;;;;;;57.40;26.60;;;;;;;0.53;78.95;100421.44;1723517;82;21233;-35
2020/12/05 05:39:36;;;;;;;61.50;27.77;;;;;;;0.58;78.84;100418.20;1766290;80;21226;-35
2020/12/05 05:42:04;;;;;;;58.90;28.25;;;;;;;0.56;78.89;100416.89;1730593;80;21028;-35
2020/12/05 05:44:33;;;;;;;53.20;28.15;;;;;;;0.57;78.87;100423.30;1725764;82;21052;-35
2020/12/05 05:47:01;;;;;;;58.45;28.27;;;;;;;0.62;78.75;100439.84;1753119;80;21622;-35
2020/12/05 05:49:31;;;;;;;55.90;28.42;;;;;;;0.61;78.68;100434.23;1748027;80;23605;-35
2020/12/05 05:52:03;;;;;;;55.28;26.93;;;;;;;0.61;78.73;100432.89;1716254;82;25100;-35
2020/12/05 05:54:36;;;;;;;57.23;26.77;;;;;;;0.62;78.69;100439.84;1750812;81;21155;-36
2020/12/05 05:57:13;;;;;;;55.83;28.00;;;;;;;0.69;78.33;100441.16;1735354;81;21143;-36
2020/12/05 05:59:43;;;;;;;57.65;27.98;;;;;;;0.66;78.36;100452.38;1734651;82;21684;-34
2020/12/05 06:02:15;;;;;;;54.93;27.87;;;;;;;0.63;78.50;100442.78;1759179;81;21376;-35
2020/12/05 06:04:45;;;;;;;61.83;29.02;;;;;;;0.66;78.45;100447.05;1758323;80;21102;-35
2020/12/05 06:07:18;;;;;;;63.42;30.85;;;;;;;0.73;78.30;100449.42;1756483;80;21139;-35
2020/12/05 06:09:51;;;;;;;58.25;29.20;;;;;;;0.69;78.27;100452.36;1751555;81;21143;-35
2020/12/05 06:12:22;;;;;;;46.60;24.90;;;;;;;0.66;78.48;100447.58;1739277;82;21139;-35
2020/12/05 06:14:50;;;;;;;62.78;28.40;;;;;;;0.71;78.31;100455.05;1755753;80;21274;-34
2020/12/05 06:17:20;;;;;;;62.33;28.07;;;;;;;0.73;78.25;100454.23;1759343;80;21040;-35
2020/12/05 06:19:49;;;;;;;43.67;21.50;;;;;;;0.71;78.25;100454.25;1757386;81;22135;-35
2020/12/05 06:22:46;;;;;;;52.38;26.68;;;;;;;0.68;78.32;100454.76;1739799;80;21151;-35
2020/12/05 06:25:19;;;;;;;52.35;26.48;;;;;;;0.73;78.26;100458.77;1738368;80;21158;-35
2020/12/05 06:27:51;;;;;;;68.45;29.37;;;;;;;0.75;78.19;100453.44;1724868;82;21405;-35
2020/12/05 06:30:20;;;;;;;61.65;28.27;;;;;;;0.74;78.23;100465.17;1754114;80;21182;-35
2020/12/05 06:32:49;;;;;;;50.88;26.37;;;;;;;0.71;78.28;100467.06;1727200;82;21464;-34
2020/12/05 06:35:23;;;;;;;62.30;28.57;;;;;;;0.75;78.16;100472.66;1737083;82;21601;-35
2020/12/05 06:37:56;;;;;;;65.22;29.67;;;;;;;0.80;77.94;100473.98;1729735;82;21594;-35
2020/12/05 06:40:24;;;;;;;66.95;31.25;;;;;;;0.76;77.96;100477.73;1743682;81;21346;-35
2020/12/05 06:42:55;;;;;;;57.85;29.82;;;;;;;0.72;78.21;100477.20;1757096;80;21174;-35
2020/12/05 06:45:31;;;;;;;65.60;30.95;;;;;;;0.77;78.08;100477.20;1776580;80;21139;-35
2020/12/05 06:48:14;;;;;;;71.37;33.45;;;;;;;0.82;77.94;100479.88;1762882;80;21162;-35
2020/12/05 06:50:45;;;;;;;69.32;33.18;;;;;;;0.82;78.00;100485.21;1763793;80;21154;-34
2020/12/05 06:53:25;;;;;;;;;;;;;;;0.82;78.09;100491.88;1751754;81;21252;-35
2020/12/05 06:55:56;;;;;;;72.25;34.63;;;;;;;0.83;78.04;100494.80;1752382;81;20659;-35
2020/12/05 06:58:28;;;;;;;80.40;36.55;;;;;;;0.86;78.01;100507.63;1768721;80;21625;-35
2020/12/05 07:00:57;;;;;;;81.55;36.98;;;;;;;0.89;77.91;100504.41;1771612;80;21182;-35
2020/12/05 07:03:30;;;;;;;77.95;35.10;;;;;;;0.44;77.89;100442.48;1768244;80;21180;-35
2020/12/05 07:05:59;;;;;;;77.97;35.50;;;;;;;0.88;77.87;100502.27;1726608;81;22271;-35
2020/12/05 07:11:18;;;;;;;81.90;36.35;;;;;;;1.02;77.69;100517.22;1818531;76;22942;-35
2020/12/05 07:13:50;;;;;;;89.22;38.95;;;;;;;0.98;77.64;100512.16;1784956;79;21044;-34
2020/12/05 07:16:27;;;;;;;82.90;39.00;;;;;;;0.69;77.66;100472.38;1791993;79;21200;-35
2020/12/05 07:19:00;;;;;;;79.85;36.60;;;;;;;0.95;77.69;100515.37;1804887;78;21006;-35
2020/12/05 07:21:29;;;;;;;88.95;39.75;;;;;;;1.03;77.44;100512.15;1801736;77;21664;-35
2020/12/05 07:23:58;;;;;;;83.50;34.30;;;;;;;0.99;77.57;100519.63;1783470;79;21003;-34
2020/12/05 07:26:27;;;;;;;79.27;35.85;;;;;;;0.94;77.72;100525.77;1803880;79;21035;-35
2020/12/05 07:28:56;;;;;;;91.32;40.25;;;;;;;0.94;77.79;100532.45;1780643;80;21574;-34
2020/12/05 07:31:25;;;;;;;77.27;35.33;;;;;;;0.96;77.83;100540.20;1775348;80;20992;-35
2020/12/05 07:33:54;;;;;;;92.17;42.30;;;;;;;0.96;77.90;100546.34;1783320;80;21573;-35
2020/12/05 07:36:22;;;;;;;91.75;39.42;;;;;;;0.97;78.02;100548.48;1784036;80;21166;-34
2020/12/05 07:38:51;;;;;;;73.67;35.05;;;;;;;0.99;77.96;100553.00;1777346;80;21140;-34
2020/12/05 07:41:20;;;;;;;90.62;41.40;;;;;;;1.03;77.79;100548.20;1772583;80;23475;-34
2020/12/05 07:43:48;;;;;;;104.60;42.83;;;;;;;1.04;77.71;100560.48;1770608;80;21031;-35
2020/12/05 07:46:17;;;;;;;88.85;36.30;;;;;;;0.97;77.90;100554.59;1749274;80;21153;-34
2020/12/05 07:48:45;;;;;;;83.47;38.42;;;;;;;0.95;77.98;100569.30;1764171;80;21131;-34
2020/12/05 07:51:17;;;;;;;78.72;36.33;;;;;;;1.00;77.90;100568.77;1722165;83;21194;-34
2020/12/05 07:53:46;;;;;;;89.13;39.13;;;;;;;1.12;77.66;100567.95;1723782;83;21375;-35
2020/12/05 07:56:20;;;;;;;63.77;29.07;;;;;;;1.12;77.61;100569.29;1721821;82;21069;-35
2020/12/05 07:58:56;;;;;;;86.63;35.85;;;;;;;1.09;77.55;100577.84;1774842;80;21190;-35
2020/12/05 08:01:52;;;;;;;78.05;34.98;;;;;;;1.09;77.54;100571.17;1775261;80;21142;-34
2020/12/05 08:04:54;;;;;;;79.25;35.92;;;;;;;1.12;77.41;100583.98;1775335;80;21613;-34
2020/12/05 08:07:38;;;;;;;77.20;33.35;;;;;;;1.12;77.49;100581.31;1752707;80;21190;-35
2020/12/05 08:10:12;;;;;;;68.47;30.72;;;;;;;1.06;77.67;100578.39;1714426;83;21250;-34
2020/12/05 08:13:01;;;;;;;68.47;31.90;;;;;;;1.11;77.59;100586.41;1710309;82;21210;-34
2020/12/05 08:15:30;;;;;;;71.82;34.35;;;;;;;1.17;77.38;100579.97;1701829;83;21605;-34
2020/12/05 08:17:59;;;;;;;72.00;32.55;;;;;;;1.20;77.43;100586.66;1708470;83;21463;-34
2020/12/05 08:20:29;;;;;;;76.12;31.37;;;;;;;1.22;77.41;100589.32;1720274;81;21198;-34
2020/12/05 08:22:59;;;;;;;68.85;32.63;;;;;;;1.22;77.22;100588.52;1708336;81;21185;-34
2020/12/05 08:25:28;;;;;;;73.65;33.67;;;;;;;1.25;77.24;100588.80;1754589;80;21341;-35
2020/12/05 08:27:56;;;;;;;73.07;33.42;;;;;;;0.97;77.13;100537.24;1763121;80;21162;-35
2020/12/05 08:30:25;;;;;;;86.55;37.63;;;;;;;1.34;77.14;100585.59;1765664;80;21465;-35
2020/12/05 08:33:01;;;;;;;72.58;32.93;;;;;;;1.30;77.04;100584.00;1766005;80;21225;-34
2020/12/05 08:35:31;;;;;;;88.40;37.05;;;;;;;1.31;77.03;100594.92;1771358;80;21193;-34
2020/12/05 08:38:02;;;;;;;86.00;37.35;;;;;;;1.35;76.99;100583.19;1767437;80;21005;-35
2020/12/05 08:40:32;;;;;;;97.00;36.28;;;;;;;1.34;76.95;100584.25;1771032;80;21141;-35
2020/12/05 08:43:00;;;;;;;100.78;39.20;;;;;;;1.29;77.06;100581.86;1694748;83;21861;-34
2020/12/05 08:45:28;;;;;;;85.75;36.23;;;;;;;1.26;77.17;100582.38;1696487;83;21349;-34
2020/12/05 08:47:56;;;;;;;86.15;36.95;;;;;;;1.23;77.28;100576.23;1768774;80;21155;-35
2020/12/05 08:50:32;;;;;;;96.35;39.08;;;;;;;1.28;77.01;100578.91;1768898;80;21138;-34
2020/12/05 08:53:01;;;;;;;86.90;34.25;;;;;;;1.28;77.02;100586.92;1763674;80;21185;-35
2020/12/05 08:55:33;;;;;;;86.72;35.25;;;;;;;1.23;77.02;100582.11;1763993;79;21135;-35
2020/12/05 08:58:06;;;;;;;86.02;37.73;;;;;;;1.17;77.17;100581.31;1741619;80;22264;-34
2020/12/05 09:00:51;;;;;;;89.95;38.10;;;;;;;1.26;77.17;100578.90;1824971;78;22418;-35
2020/12/05 09:03:22;;;;;;;96.87;38.92;;;;;;;1.31;77.17;100585.58;1813611;79;20984;-35
2020/12/05 09:05:51;;;;;;;91.85;38.23;;;;;;;1.30;76.98;100582.13;1806958;78;21810;-34
2020/12/05 09:08:22;;;;;;;78.80;33.15;;;;;;;1.23;76.92;100584.25;1765346;80;21007;-35
2020/12/05 09:10:50;;;;;;;;;;;;;;;1.18;76.98;100589.59;1746372;82;21268;-34
2020/12/05 09:13:18;;;;;;;89.05;34.58;;;;;;;1.21;76.97;100585.61;1727547;82;20199;-35
2020/12/05 09:16:00;;;;;;;85.60;35.38;;;;;;;1.12;77.24;100591.99;1767318;80;21012;-34
2020/12/05 09:18:50;;;;;;;77.00;32.80;;;;;;;1.15;77.33;100588.00;1773210;80;21334;-34
2020/12/05 09:21:20;;;;;;;83.17;34.63;;;;;;;1.16;77.09;100589.05;1751927;81;20992;-34
2020/12/05 09:24:00;;;;;;;77.62;32.55;;;;;;;1.23;76.91;100582.92;1754940;81;21288;-35
2020/12/05 09:26:28;;;;;;;92.85;36.08;;;;;;;1.25;76.82;100583.47;1761888;80;22186;-35
2020/12/05 09:28:57;;;;;;;98.22;34.73;;;;;;;1.27;76.78;100585.31;1750754;80;21194;-34
2020/12/05 09:31:26;;;;;;;77.95;32.40;;;;;;;1.27;76.80;100577.83;1747600;80;21210;-34
2020/12/05 09:33:55;;;;;;;62.00;25.80;;;;;;;1.27;76.58;100583.98;1723836;81;21127;-35
2020/12/05 09:36:24;;;;;;;72.55;30.50;;;;;;;1.34;76.41;100584.25;1746188;82;21115;-35
2020/12/05 09:38:53;;;;;;;80.25;31.75;;;;;;;1.31;76.14;100577.03;1729642;81;21176;-34
2020/12/05 09:41:22;;;;;;;72.00;31.37;;;;;;;1.27;76.10;100577.83;1779817;80;21170;-35
2020/12/05 09:43:52;;;;;;;79.62;34.08;;;;;;;1.25;76.34;100574.65;1741704;81;21444;-35
2020/12/05 09:46:20;;;;;;;72.35;32.63;;;;;;;1.33;76.35;100578.63;1743377;82;21170;-34
2020/12/05 09:48:49;;;;;;;73.97;32.55;;;;;;;1.40;75.77;100579.18;1732472;81;21024;-35
2020/12/05 09:51:18;;;;;;;75.28;30.35;;;;;;;1.34;75.75;100582.38;1711155;83;21195;-35
2020/12/05 09:53:46;;;;;;;65.10;30.37;;;;;;;1.30;75.88;100582.13;1746007;81;21158;-35
2020/12/05 09:56:15;;;;;;;65.50;28.38;;;;;;;1.28;75.58;100596.27;1737556;82;21338;-34
2020/12/05 09:58:43;;;;;;;53.05;24.67;;;;;;;1.25;75.39;100595.48;1751916;81;21158;-35
2020/12/05 10:01:12;;;;;;;58.95;26.12;;;;;;;1.28;75.22;100594.14;1799248;78;21407;-35
2020/12/05 10:03:41;;;;;;;63.15;28.45;;;;;;;1.22;75.23;100605.35;1791489;79;21182;-34
2020/12/05 10:06:09;;;;;;;59.93;28.38;;;;;;;1.15;75.53;100596.81;1791688;78;21625;-35
2020/12/05 10:08:37;;;;;;;59.30;28.80;;;;;;;1.09;75.75;100607.22;1798091;79;21363;-35
2020/12/05 10:11:08;;;;;;;63.92;29.50;;;;;;;1.09;75.79;100601.08;1795899;79;21213;-35
2020/12/05 10:13:36;;;;;;;61.45;28.45;;;;;;;1.07;75.99;100599.19;1797286;79;21166;-35
2020/12/05 10:16:06;;;;;;;;;;;;;;;1.06;76.16;100605.63;1797126;79;21197;-37
2020/12/05 10:18:34;;;;;;;60.52;28.90;;;;;;;1.05;76.40;100604.02;1787527;79;20254;-37
2020/12/05 10:21:03;;;;;;;67.40;31.62;;;;;;;1.08;76.45;100601.61;1802447;79;21256;-37
2020/12/05 10:23:31;;;;;;;65.97;30.37;;;;;;;1.12;76.24;100595.19;1791600;79;21179;-37
2020/12/05 10:25:59;;;;;;;72.03;33.98;;;;;;;1.09;76.29;100597.88;1799353;79;21027;-37
2020/12/05 10:28:27;;;;;;;63.20;29.37;;;;;;;1.05;76.48;100604.02;1797539;78;21174;-37
2020/12/05 10:30:56;;;;;;;56.77;26.40;;;;;;;1.07;76.46;100602.67;1785787;79;21122;-37
2020/12/05 10:33:24;;;;;;;56.68;28.52;;;;;;;1.14;76.18;100601.08;1788546;79;22135;-38
2020/12/05 10:35:53;;;;;;;68.33;31.75;;;;;;;1.13;76.05;100612.30;1751236;80;21178;-39
2020/12/05 10:38:21;;;;;;;64.70;28.57;;;;;;;1.09;76.25;100608.55;1744986;81;20998;-38
2020/12/05 10:40:50;;;;;;;70.05;31.20;;;;;;;1.07;76.35;100608.01;1751184;81;21622;-38
2020/12/05 10:43:19;;;;;;;68.57;31.97;;;;;;;1.07;76.45;100605.87;1762650;81;21173;-38
2020/12/05 10:45:47;;;;;;;58.90;27.27;;;;;;;1.12;76.38;100606.68;1763364;81;21894;-38
2020/12/05 10:48:15;;;;;;;74.85;33.08;;;;;;;1.12;76.55;100608.02;1761040;81;21199;-38
2020/12/05 10:50:44;;;;;;;67.53;31.68;;;;;;;1.12;76.63;100610.69;1743810;80;21370;-37
2020/12/05 10:53:14;;;;;;;68.35;33.70;;;;;;;1.15;76.66;100613.37;1719008;82;21052;-37
2020/12/05 10:55:43;;;;;;;72.75;33.70;;;;;;;1.21;76.58;100606.41;1717071;82;21186;-37
2020/12/05 10:58:11;;;;;;;65.70;31.77;;;;;;;1.29;76.48;100603.23;1763096;80;21202;-37
2020/12/05 11:00:39;;;;;;;81.63;37.55;;;;;;;1.29;76.47;100605.09;1792457;78;21012;-37
2020/12/05 11:03:07;;;;;;;76.10;35.50;;;;;;;1.29;76.48;100596.55;1788494;78;20992;-37
2020/12/05 11:05:36;;;;;;;64.37;32.63;;;;;;;1.32;76.50;100603.21;1801774;78;21153;-37
2020/12/05 11:08:04;;;;;;;70.65;32.35;;;;;;;1.41;76.33;100612.81;1791743;80;21135;-37
2020/12/05 11:10:34;;;;;;;86.32;36.98;;;;;;;1.45;76.12;100613.91;1791930;80;21365;-37
2020/12/05 11:13:02;;;;;;;80.62;36.80;;;;;;;1.44;76.22;100612.30;1792763;78;21134;-37
2020/12/05 11:15:31;;;;;;;75.57;34.88;;;;;;;1.34;76.29;100608.30;1814558;78;21020;-37
2020/12/05 11:17:59;;;;;;;65.62;30.55;;;;;;;1.44;76.40;100614.98;1821669;78;21102;-37
2020/12/05 11:20:28;;;;;;;53.92;27.90;;;;;;;1.50;76.06;100615.25;1822894;78;21134;-37
2020/12/05 11:22:56;;;;;;;61.68;30.97;;;;;;;1.53;75.76;100619.52;1815944;78;21452;-37
2020/12/05 11:25:26;;;;;;;67.90;33.78;;;;;;;1.50;75.81;100618.69;1790041;80;21086;-37
2020/12/05 11:27:54;;;;;;;60.43;27.55;;;;;;;1.46;75.90;100615.49;1822903;78;21392;-37
2020/12/05 11:30:23;;;;;;;58.28;28.57;;;;;;;1.42;75.98;100613.09;1824142;78;21039;-37
2020/12/05 11:32:52;;;;;;;59.45;30.90;;;;;;;1.46;75.88;100611.48;1824257;78;21529;-37
2020/12/05 11:35:20;;;;;;;58.08;29.42;;;;;;;1.53;75.76;100609.35;1798408;78;21397;-36
2020/12/05 11:37:49;;;;;;;64.20;32.23;;;;;;;1.51;75.78;100610.14;1816861;78;21631;-37
2020/12/05 11:40:17;;;;;;;73.02;33.67;;;;;;;1.48;75.87;100605.34;1813936;78;21031;-36